sensor_id;sensor_type;location;lat;lon;timestamp;pressure;altitude;pressure_sealevel;temperature;humidity
2685;BME280;1352;48.446;9.156;2022-11-20T00:02:18;94763.00;;;5.64;100.00
2685;BME280;1352;48.446;9.156;2022-11-20T00:04:47;94762.41;;;5.60;100.00
2685;BME280;1352;48.446;9.156;2022-11-20T00:07:19;94763.00;;;5.64;100.00
2685;BME280;1352;48.446;9.156;2022-11-20T00:09:50;94765.34;;;5.67;100.00
2685;BME280;1352;48.446;9.156;2022-11-20T00:12:24;94757.72;;;5.54;100.00
2685;BME280;1352;48.446;9.156;2022-11-20T00:15:03;94760.44;;;5.52;100.00
2685;BME280;1352;48.446;9.156;2022-11-20T00:17:52;94758.34;;;5.46;100.00
2685;BME280;1352;48.446;9.156;2022-11-20T00:20:35;94760.56;;;5.40;100.00
2685;BME280;1352;48.446;9.156;2022-11-20T00:23:18;94771.00;;;5.38;100.00
2685;BME280;1352;48.446;9.156;2022-11-20T00:25:52;94765.84;;;5.38;100.00
2685;BME280;1352;48.446;9.156;2022-11-20T00:28:24;94766.81;;;5.37;100.00
2685;BME280;1352;48.446;9.156;2022-11-20T00:31:10;94766.53;;;5.40;100.00
2685;BME280;1352;48.446;9.156;2022-11-20T00:33:43;94772.53;;;5.41;100.00
2685;BME280;1352;48.446;9.156;2022-11-20T00:36:13;94769.13;;;5.40;100.00
2685;BME280;1352;48.446;9.156;2022-11-20T00:38:46;94771.84;;;5.39;100.00
2685;BME280;1352;48.446;9.156;2022-11-20T00:41:15;94767.16;;;5.33;100.00
2685;BME280;1352;48.446;9.156;2022-11-20T00:44:04;94775.94;;;5.30;100.00
2685;BME280;1352;48.446;9.156;2022-11-20T00:46:57;94775.13;;;5.30;100.00
2685;BME280;1352;48.446;9.156;2022-11-20T00:49:35;94782.31;;;5.26;100.00
2685;BME280;1352;48.446;9.156;2022-11-20T00:52:04;94780.31;;;5.30;100.00
2685;BME280;1352;48.446;9.156;2022-11-20T00:54:36;94774.31;;;5.29;100.00
2685;BME280;1352;48.446;9.156;2022-11-20T00:57:16;94773.38;;;5.30;100.00
2685;BME280;1352;48.446;9.156;2022-11-20T00:59:52;94776.56;;;5.34;100.00
2685;BME280;1352;48.446;9.156;2022-11-20T01:02:34;94777.84;;;5.28;100.00
2685;BME280;1352;48.446;9.156;2022-11-20T01:05:09;94785.13;;;5.23;100.00
2685;BME280;1352;48.446;9.156;2022-11-20T01:07:46;94790.06;;;5.15;100.00
2685;BME280;1352;48.446;9.156;2022-11-20T01:10:21;94795.59;;;5.21;100.00
2685;BME280;1352;48.446;9.156;2022-11-20T01:13:03;94787.94;;;5.20;100.00
2685;BME280;1352;48.446;9.156;2022-11-20T01:16:06;94784.31;;;5.22;100.00
2685;BME280;1352;48.446;9.156;2022-11-20T01:18:35;94785.94;;;5.23;100.00
2685;BME280;1352;48.446;9.156;2022-11-20T01:21:04;94785.84;;;5.25;100.00
2685;BME280;1352;48.446;9.156;2022-11-20T01:23:37;94789.59;;;5.21;100.00
2685;BME280;1352;48.446;9.156;2022-11-20T01:26:25;94794.41;;;5.26;100.00
2685;BME280;1352;48.446;9.156;2022-11-20T01:28:57;94789.47;;;5.22;100.00
2685;BME280;1352;48.446;9.156;2022-11-20T01:31:29;94797.59;;;5.18;100.00
2685;BME280;1352;48.446;9.156;2022-11-20T01:34:00;94793.34;;;5.17;100.00
2685;BME280;1352;48.446;9.156;2022-11-20T01:36:31;94798.28;;;5.20;100.00
2685;BME280;1352;48.446;9.156;2022-11-20T01:39:04;94794.88;;;5.19;100.00
2685;BME280;1352;48.446;9.156;2022-11-20T01:41:40;94792.28;;;5.19;100.00
2685;BME280;1352;48.446;9.156;2022-11-20T01:44:45;94795.34;;;5.24;100.00
2685;BME280;1352;48.446;9.156;2022-11-20T01:47:24;94794.31;;;5.27;100.00
2685;BME280;1352;48.446;9.156;2022-11-20T01:49:59;94793.13;;;5.31;100.00
2685;BME280;1352;48.446;9.156;2022-11-20T01:52:38;94801.38;;;5.36;100.00
2685;BME280;1352;48.446;9.156;2022-11-20T01:55:17;94790.41;;;5.33;100.00
2685;BME280;1352;48.446;9.156;2022-11-20T01:57:51;94793.94;;;5.32;100.00
2685;BME280;1352;48.446;9.156;2022-11-20T02:00:25;94803.84;;;5.38;100.00
2685;BME280;1352;48.446;9.156;2022-11-20T02:02:58;94794.28;;;5.38;100.00
2685;BME280;1352;48.446;9.156;2022-11-20T02:05:32;94790.53;;;5.42;100.00
2685;BME280;1352;48.446;9.156;2022-11-20T02:08:03;94793.72;;;5.46;100.00
2685;BME280;1352;48.446;9.156;2022-11-20T02:10:35;94789.38;;;5.46;100.00
2685;BME280;1352;48.446;9.156;2022-11-20T02:13:05;94790.75;;;5.50;100.00
2685;BME280;1352;48.446;9.156;2022-11-20T02:15:56;94785.03;;;5.47;100.00
2685;BME280;1352;48.446;9.156;2022-11-20T02:18:33;94788.19;;;5.50;100.00
2685;BME280;1352;48.446;9.156;2022-11-20T02:21:07;94791.47;;;5.52;100.00
2685;BME280;1352;48.446;9.156;2022-11-20T02:24:09;94788.88;;;5.52;100.00
2685;BME280;1352;48.446;9.156;2022-11-20T02:26:47;94788.19;;;5.61;100.00
2685;BME280;1352;48.446;9.156;2022-11-20T02:29:24;94790.44;;;5.66;100.00
2685;BME280;1352;48.446;9.156;2022-11-20T02:32:18;94797.22;;;5.67;100.00
2685;BME280;1352;48.446;9.156;2022-11-20T02:34:46;94787.69;;;5.79;100.00
2685;BME280;1352;48.446;9.156;2022-11-20T02:37:17;94794.63;;;5.78;100.00
2685;BME280;1352;48.446;9.156;2022-11-20T02:39:48;94794.50;;;5.80;100.00
2685;BME280;1352;48.446;9.156;2022-11-20T02:42:18;94794.50;;;5.80;100.00
2685;BME280;1352;48.446;9.156;2022-11-20T02:44:46;94799.06;;;5.87;100.00
2685;BME280;1352;48.446;9.156;2022-11-20T02:47:14;94790.50;;;5.87;100.00
2685;BME280;1352;48.446;9.156;2022-11-20T02:49:56;94796.41;;;5.89;100.00
2685;BME280;1352;48.446;9.156;2022-11-20T02:52:27;94797.94;;;5.91;100.00
2685;BME280;1352;48.446;9.156;2022-11-20T02:55:00;94783.34;;;5.90;100.00
2685;BME280;1352;48.446;9.156;2022-11-20T02:57:30;94792.06;;;5.89;100.00
2685;BME280;1352;48.446;9.156;2022-11-20T03:00:01;94790.19;;;5.91;100.00
2685;BME280;1352;48.446;9.156;2022-11-20T03:02:35;94789.78;;;5.96;100.00
2685;BME280;1352;48.446;9.156;2022-11-20T03:05:07;94790.06;;;5.93;100.00
2685;BME280;1352;48.446;9.156;2022-11-20T03:07:46;94790.50;;;5.98;100.00
2685;BME280;1352;48.446;9.156;2022-11-20T03:10:38;94787.22;;;5.96;100.00
2685;BME280;1352;48.446;9.156;2022-11-20T03:13:10;94781.22;;;5.95;100.00
2685;BME280;1352;48.446;9.156;2022-11-20T03:15:41;94774.66;;;5.91;100.00
2685;BME280;1352;48.446;9.156;2022-11-20T03:18:22;94788.00;;;5.85;100.00
2685;BME280;1352;48.446;9.156;2022-11-20T03:20:57;94782.28;;;5.82;100.00
2685;BME280;1352;48.446;9.156;2022-11-20T03:23:25;94789.00;;;5.84;100.00
2685;BME280;1352;48.446;9.156;2022-11-20T03:25:55;94774.03;;;5.77;100.00
2685;BME280;1352;48.446;9.156;2022-11-20T03:28:22;94783.59;;;5.65;100.00
2685;BME280;1352;48.446;9.156;2022-11-20T03:30:53;94782.66;;;5.55;100.00
2685;BME280;1352;48.446;9.156;2022-11-20T03:33:38;94774.78;;;5.56;100.00
2685;BME280;1352;48.446;9.156;2022-11-20T03:36:20;94782.56;;;5.56;100.00
2685;BME280;1352;48.446;9.156;2022-11-20T03:38:48;94786.06;;;5.55;100.00
2685;BME280;1352;48.446;9.156;2022-11-20T03:41:22;94787.47;;;5.48;100.00
2685;BME280;1352;48.446;9.156;2022-11-20T03:43:53;94787.47;;;5.48;100.00
2685;BME280;1352;48.446;9.156;2022-11-20T03:46:31;94784.53;;;5.42;100.00
2685;BME280;1352;48.446;9.156;2022-11-20T03:49:02;94786.41;;;5.40;100.00
2685;BME280;1352;48.446;9.156;2022-11-20T03:51:45;94785.72;;;5.27;100.00
2685;BME280;1352;48.446;9.156;2022-11-20T03:54:16;94786.78;;;5.24;100.00
2685;BME280;1352;48.446;9.156;2022-11-20T03:56:49;94790.66;;;5.18;100.00
2685;BME280;1352;48.446;9.156;2022-11-20T03:59:23;94796.06;;;5.27;100.00
2685;BME280;1352;48.446;9.156;2022-11-20T04:01:54;94787.38;;;5.28;100.00
2685;BME280;1352;48.446;9.156;2022-11-20T04:04:32;94786.66;;;5.26;100.00
2685;BME280;1352;48.446;9.156;2022-11-20T04:07:07;94799.59;;;5.37;100.00
2685;BME280;1352;48.446;9.156;2022-11-20T04:09:40;94790.44;;;5.44;100.00
2685;BME280;1352;48.446;9.156;2022-11-20T04:12:12;94793.94;;;5.43;100.00
2685;BME280;1352;48.446;9.156;2022-11-20T04:14:42;94790.66;;;5.41;100.00
2685;BME280;1352;48.446;9.156;2022-11-20T04:17:13;94797.38;;;5.54;100.00
2685;BME280;1352;48.446;9.156;2022-11-20T04:19:47;94795.94;;;5.61;100.00
2685;BME280;1352;48.446;9.156;2022-11-20T04:22:20;94793.00;;;5.66;100.00
2685;BME280;1352;48.446;9.156;2022-11-20T04:24:54;94795.44;;;5.79;100.00
2685;BME280;1352;48.446;9.156;2022-11-20T04:27:27;94791.47;;;5.75;100.00
2685;BME280;1352;48.446;9.156;2022-11-20T04:29:55;94788.72;;;5.87;100.00
2685;BME280;1352;48.446;9.156;2022-11-20T04:32:23;94785.31;;;5.87;100.00
2685;BME280;1352;48.446;9.156;2022-11-20T04:34:55;94789.34;;;5.91;100.00
2685;BME280;1352;48.446;9.156;2022-11-20T04:37:23;94788.03;;;5.96;100.00
2685;BME280;1352;48.446;9.156;2022-11-20T04:39:52;94789.44;;;6.01;100.00
2685;BME280;1352;48.446;9.156;2022-11-20T04:42:20;94789.06;;;6.05;100.00
2685;BME280;1352;48.446;9.156;2022-11-20T04:45:00;94786.47;;;6.05;100.00
2685;BME280;1352;48.446;9.156;2022-11-20T04:47:48;94786.75;;;6.02;100.00
2685;BME280;1352;48.446;9.156;2022-11-20T04:50:30;94787.81;;;6.00;100.00
2685;BME280;1352;48.446;9.156;2022-11-20T04:55:58;94788.13;;;6.06;100.00
2685;BME280;1352;48.446;9.156;2022-11-20T04:58:32;94784.28;;;6.01;99.99
2685;BME280;1352;48.446;9.156;2022-11-20T05:01:12;94785.31;;;5.98;99.88
2685;BME280;1352;48.446;9.156;2022-11-20T05:03:44;94785.31;;;5.98;100.00
2685;BME280;1352;48.446;9.156;2022-11-20T05:06:19;94786.75;;;5.91;100.00
2685;BME280;1352;48.446;9.156;2022-11-20T05:08:47;94783.66;;;5.86;100.00
2685;BME280;1352;48.446;9.156;2022-11-20T05:11:16;94777.53;;;5.87;100.00
2685;BME280;1352;48.446;9.156;2022-11-20T05:13:44;94776.88;;;5.85;100.00
2685;BME280;1352;48.446;9.156;2022-11-20T05:16:17;94773.81;;;5.80;100.00
2685;BME280;1352;48.446;9.156;2022-11-20T05:18:51;94770.28;;;5.81;100.00
2685;BME280;1352;48.446;9.156;2022-11-20T05:21:30;94777.09;;;5.82;100.00
2685;BME280;1352;48.446;9.156;2022-11-20T05:24:01;94769.34;;;5.82;100.00
2685;BME280;1352;48.446;9.156;2022-11-20T05:26:33;94769.94;;;5.74;100.00
2685;BME280;1352;48.446;9.156;2022-11-20T05:29:00;94767.59;;;5.71;100.00
2685;BME280;1352;48.446;9.156;2022-11-20T05:31:35;94766.31;;;5.66;100.00
2685;BME280;1352;48.446;9.156;2022-11-20T05:34:13;94768.91;;;5.66;100.00
2685;BME280;1352;48.446;9.156;2022-11-20T05:37:01;94763.34;;;5.59;100.00
2685;BME280;1352;48.446;9.156;2022-11-20T05:39:38;94766.78;;;5.59;100.00
2685;BME280;1352;48.446;9.156;2022-11-20T05:42:32;94758.34;;;5.46;100.00
2685;BME280;1352;48.446;9.156;2022-11-20T05:45:27;94762.09;;;5.42;100.00
2685;BME280;1352;48.446;9.156;2022-11-20T05:51:33;94761.75;;;5.36;100.00
2685;BME280;1352;48.446;9.156;2022-11-20T05:54:25;94755.88;;;5.34;100.00
2685;BME280;1352;48.446;9.156;2022-11-20T05:59:52;94759.63;;;5.18;100.00
2685;BME280;1352;48.446;9.156;2022-11-20T06:02:35;94765.50;;;5.20;100.00
2685;BME280;1352;48.446;9.156;2022-11-20T06:05:17;94765.25;;;5.12;100.00
2685;BME280;1352;48.446;9.156;2022-11-20T06:07:44;94767.50;;;5.17;100.00
2685;BME280;1352;48.446;9.156;2022-11-20T06:10:23;94762.91;;;5.20;100.00
2685;BME280;1352;48.446;9.156;2022-11-20T06:13:01;94757.50;;;5.23;100.00
2685;BME280;1352;48.446;9.156;2022-11-20T06:15:38;94761.13;;;5.21;100.00
2685;BME280;1352;48.446;9.156;2022-11-20T06:18:13;94763.16;;;5.17;100.00
2685;BME280;1352;48.446;9.156;2022-11-20T06:21:02;94764.09;;;5.16;100.00
2685;BME280;1352;48.446;9.156;2022-11-20T06:23:45;94760.69;;;5.16;100.00
2685;BME280;1352;48.446;9.156;2022-11-20T06:26:35;94763.38;;;5.14;100.00
2685;BME280;1352;48.446;9.156;2022-11-20T06:29:21;94768.44;;;5.16;100.00
2685;BME280;1352;48.446;9.156;2022-11-20T06:32:17;94747.66;;;5.17;100.00
2685;BME280;1352;48.446;9.156;2022-11-20T06:44:19;94751.16;;;5.16;100.00
2685;BME280;1352;48.446;9.156;2022-11-20T06:47:03;94768.91;;;5.21;100.00
2685;BME280;1352;48.446;9.156;2022-11-20T06:49:48;94751.50;;;5.23;100.00
2685;BME280;1352;48.446;9.156;2022-11-20T06:52:36;94751.41;;;5.24;100.00
2685;BME280;1352;48.446;9.156;2022-11-20T06:58:13;94762.09;;;5.31;100.00
2685;BME280;1352;48.446;9.156;2022-11-20T07:04:03;94777.72;;;5.41;100.00
2685;BME280;1352;48.446;9.156;2022-11-20T07:09:49;94775.38;;;5.49;100.00
2685;BME280;1352;48.446;9.156;2022-11-20T07:12:34;94777.84;;;5.50;100.00
2685;BME280;1352;48.446;9.156;2022-11-20T07:15:11;94771.72;;;5.51;100.00
2685;BME280;1352;48.446;9.156;2022-11-20T07:17:57;94772.19;;;5.56;100.00
2685;BME280;1352;48.446;9.156;2022-11-20T07:20:50;94776.56;;;5.56;100.00
2685;BME280;1352;48.446;9.156;2022-11-20T07:23:24;94789.34;;;5.57;100.00
2685;BME280;1352;48.446;9.156;2022-11-20T07:26:02;94777.22;;;5.58;100.00
2685;BME280;1352;48.446;9.156;2022-11-20T07:28:32;94781.00;;;5.65;100.00
2685;BME280;1352;48.446;9.156;2022-11-20T07:31:04;94784.16;;;5.69;100.00
2685;BME280;1352;48.446;9.156;2022-11-20T07:33:38;94785.09;;;5.68;100.00
2685;BME280;1352;48.446;9.156;2022-11-20T07:36:17;94793.47;;;5.71;100.00
2685;BME280;1352;48.446;9.156;2022-11-20T07:41:54;94788.88;;;5.75;100.00
2685;BME280;1352;48.446;9.156;2022-11-20T07:47:53;94791.59;;;5.73;100.00
2685;BME280;1352;48.446;9.156;2022-11-20T07:50:38;94784.06;;;5.70;100.00
2685;BME280;1352;48.446;9.156;2022-11-20T07:53:23;94788.63;;;5.78;100.00
2685;BME280;1352;48.446;9.156;2022-11-20T07:56:02;94793.47;;;5.82;100.00
2685;BME280;1352;48.446;9.156;2022-11-20T07:58:47;94794.84;;;5.86;100.00
2685;BME280;1352;48.446;9.156;2022-11-20T08:01:29;94787.91;;;5.87;100.00
2685;BME280;1352;48.446;9.156;2022-11-20T08:07:10;94798.59;;;6.05;100.00
2685;BME280;1352;48.446;9.156;2022-11-20T08:10:23;94808.03;;;6.06;100.00
2685;BME280;1352;48.446;9.156;2022-11-20T08:13:10;94802.38;;;6.12;100.00
2685;BME280;1352;48.446;9.156;2022-11-20T08:16:08;94802.38;;;6.12;100.00
2685;BME280;1352;48.446;9.156;2022-11-20T08:18:49;94802.38;;;6.12;100.00
2685;BME280;1352;48.446;9.156;2022-11-20T08:21:31;94801.16;;;6.16;100.00
2685;BME280;1352;48.446;9.156;2022-11-20T08:24:42;94804.59;;;6.16;100.00
2685;BME280;1352;48.446;9.156;2022-11-20T08:27:18;94810.22;;;6.21;100.00
2685;BME280;1352;48.446;9.156;2022-11-20T08:29:46;94812.81;;;6.21;100.00
2685;BME280;1352;48.446;9.156;2022-11-20T08:32:23;94815.53;;;6.20;100.00
2685;BME280;1352;48.446;9.156;2022-11-20T08:34:58;94819.66;;;6.22;100.00
2685;BME280;1352;48.446;9.156;2022-11-20T08:37:40;94823.63;;;6.26;100.00
2685;BME280;1352;48.446;9.156;2022-11-20T08:40:21;94824.44;;;6.27;100.00
2685;BME280;1352;48.446;9.156;2022-11-20T08:43:05;94824.94;;;6.32;100.00
2685;BME280;1352;48.446;9.156;2022-11-20T08:50:31;94833.03;;;6.39;100.00
2685;BME280;1352;48.446;9.156;2022-11-20T08:52:22;94834.16;;;6.46;100.00
2685;BME280;1352;48.446;9.156;2022-11-20T08:58:37;94841.22;;;6.44;100.00
2685;BME280;1352;48.446;9.156;2022-11-20T09:01:38;94837.47;;;6.48;100.00
2685;BME280;1352;48.446;9.156;2022-11-20T09:04:26;94840.06;;;6.48;100.00
2685;BME280;1352;48.446;9.156;2022-11-20T09:07:04;94848.28;;;6.53;100.00
2685;BME280;1352;48.446;9.156;2022-11-20T09:13:22;94840.69;;;6.61;100.00
2685;BME280;1352;48.446;9.156;2022-11-20T09:16:03;94846.97;;;6.58;100.00
2685;BME280;1352;48.446;9.156;2022-11-20T09:19:07;94848.00;;;6.67;100.00
2685;BME280;1352;48.446;9.156;2022-11-20T09:21:54;94847.72;;;6.70;100.00
2685;BME280;1352;48.446;9.156;2022-11-20T09:24:22;94844.59;;;6.66;100.00
2685;BME280;1352;48.446;9.156;2022-11-20T09:26:53;94846.16;;;6.58;100.00
2685;BME280;1352;48.446;9.156;2022-11-20T09:29:28;94849.91;;;6.54;100.00
2685;BME280;1352;48.446;9.156;2022-11-20T09:32:12;94848.63;;;6.59;100.00
2685;BME280;1352;48.446;9.156;2022-11-20T09:34:50;94852.41;;;6.55;100.00
2685;BME280;1352;48.446;9.156;2022-11-20T09:37:42;94841.53;;;6.61;100.00
2685;BME280;1352;48.446;9.156;2022-11-20T09:40:43;94853.66;;;6.61;100.00
2685;BME280;1352;48.446;9.156;2022-11-20T09:50:06;94867.34;;;6.52;100.00
2685;BME280;1352;48.446;9.156;2022-11-20T09:53:20;94871.34;;;6.56;100.00
2685;BME280;1352;48.446;9.156;2022-11-20T09:59:30;94874.56;;;6.48;100.00
2685;BME280;1352;48.446;9.156;2022-11-20T10:02:16;94872.91;;;6.47;100.00
2685;BME280;1352;48.446;9.156;2022-11-20T10:04:55;94867.53;;;6.39;100.00
2685;BME280;1352;48.446;9.156;2022-11-20T10:07:36;94869.72;;;6.44;100.00
2685;BME280;1352;48.446;9.156;2022-11-20T10:10:15;94866.78;;;6.48;100.00
2685;BME280;1352;48.446;9.156;2022-11-20T10:13:01;94865.97;;;6.48;100.00
2685;BME280;1352;48.446;9.156;2022-11-20T10:15:38;94870.22;;;6.38;100.00
2685;BME280;1352;48.446;9.156;2022-11-20T10:18:39;94867.63;;;6.38;100.00
2685;BME280;1352;48.446;9.156;2022-11-20T10:21:15;94870.00;;;6.41;100.00
2685;BME280;1352;48.446;9.156;2022-11-20T10:24:06;94874.09;;;6.43;100.00
2685;BME280;1352;48.446;9.156;2022-11-20T10:26:47;94868.47;;;6.38;100.00
2685;BME280;1352;48.446;9.156;2022-11-20T10:29:25;94872.44;;;6.42;100.00
2685;BME280;1352;48.446;9.156;2022-11-20T10:32:00;94867.53;;;6.39;100.00
2685;BME280;1352;48.446;9.156;2022-11-20T10:34:46;94871.66;;;6.42;100.00
2685;BME280;1352;48.446;9.156;2022-11-20T10:37:22;94876.25;;;6.38;100.00
2685;BME280;1352;48.446;9.156;2022-11-20T10:40:10;94871.06;;;6.38;100.00
2685;BME280;1352;48.446;9.156;2022-11-20T10:43:12;94879.19;;;6.33;100.00
2685;BME280;1352;48.446;9.156;2022-11-20T10:46:00;94876.34;;;6.37;100.00
2685;BME280;1352;48.446;9.156;2022-11-20T10:48:32;94873.66;;;6.38;100.00
2685;BME280;1352;48.446;9.156;2022-11-20T10:51:15;94873.41;;;6.41;100.00
2685;BME280;1352;48.446;9.156;2022-11-20T10:53:53;94872.81;;;6.49;100.00
2685;BME280;1352;48.446;9.156;2022-11-20T10:56:35;94872.72;;;6.39;100.00
2685;BME280;1352;48.446;9.156;2022-11-20T11:02:20;94867.50;;;6.50;100.00
2685;BME280;1352;48.446;9.156;2022-11-20T11:04:54;94866.06;;;6.57;100.00
2685;BME280;1352;48.446;9.156;2022-11-20T11:07:35;94868.31;;;6.51;100.00
2685;BME280;1352;48.446;9.156;2022-11-20T11:10:37;94861.13;;;6.43;100.00
2685;BME280;1352;48.446;9.156;2022-11-20T11:13:38;94859.13;;;6.47;100.00
2685;BME280;1352;48.446;9.156;2022-11-20T11:16:49;94856.78;;;6.44;100.00
2685;BME280;1352;48.446;9.156;2022-11-20T11:19:20;94854.19;;;6.44;100.00
2685;BME280;1352;48.446;9.156;2022-11-20T11:22:11;94851.81;;;6.52;100.00
2685;BME280;1352;48.446;9.156;2022-11-20T11:24:53;94850.53;;;6.46;100.00
2685;BME280;1352;48.446;9.156;2022-11-20T11:27:24;94845.75;;;6.42;100.00
2685;BME280;1352;48.446;9.156;2022-11-20T11:30:41;94840.38;;;6.54;100.00
2685;BME280;1352;48.446;9.156;2022-11-20T11:33:21;94839.56;;;6.54;100.00
2685;BME280;1352;48.446;9.156;2022-11-20T11:35:54;94832.44;;;6.67;100.00
2685;BME280;1352;48.446;9.156;2022-11-20T11:38:29;94833.00;;;6.70;100.00
2685;BME280;1352;48.446;9.156;2022-11-20T11:41:01;94829.81;;;6.78;100.00
2685;BME280;1352;48.446;9.156;2022-11-20T11:43:37;94822.59;;;6.82;100.00
2685;BME280;1352;48.446;9.156;2022-11-20T11:46:28;94833.47;;;6.76;100.00
2685;BME280;1352;48.446;9.156;2022-11-20T11:49:17;94815.22;;;6.77;100.00
2685;BME280;1352;48.446;9.156;2022-11-20T11:52:02;94812.16;;;6.72;100.00
2685;BME280;1352;48.446;9.156;2022-11-20T11:54:36;94818.50;;;6.79;100.00
2685;BME280;1352;48.446;9.156;2022-11-20T11:57:23;94814.84;;;6.70;100.00
2685;BME280;1352;48.446;9.156;2022-11-20T12:00:06;94814.69;;;6.83;100.00
2685;BME280;1352;48.446;9.156;2022-11-20T12:02:41;94810.09;;;6.87;100.00
2685;BME280;1352;48.446;9.156;2022-11-20T12:05:19;94807.50;;;6.87;100.00
2685;BME280;1352;48.446;9.156;2022-11-20T12:07:50;94801.38;;;6.88;100.00
2685;BME280;1352;48.446;9.156;2022-11-20T12:10:45;94797.63;;;6.81;100.00
2685;BME280;1352;48.446;9.156;2022-11-20T12:19:27;94790.47;;;6.94;100.00
2685;BME280;1352;48.446;9.156;2022-11-20T12:22:31;94794.72;;;6.95;100.00
2685;BME280;1352;48.446;9.156;2022-11-20T12:25:26;94786.38;;;6.91;100.00
2685;BME280;1352;48.446;9.156;2022-11-20T12:28:21;94789.00;;;7.01;100.00
2685;BME280;1352;48.446;9.156;2022-11-20T12:31:22;94789.41;;;6.96;100.00
2685;BME280;1352;48.446;9.156;2022-11-20T12:34:10;94791.44;;;6.93;100.00
2685;BME280;1352;48.446;9.156;2022-11-20T12:36:59;94782.88;;;7.02;100.00
2685;BME280;1352;48.446;9.156;2022-11-20T12:39:36;94775.94;;;7.02;100.00
2685;BME280;1352;48.446;9.156;2022-11-20T12:45:52;94769.63;;;7.56;100.00
2685;BME280;1352;48.446;9.156;2022-11-20T12:48:57;94773.00;;;7.87;100.00
2685;BME280;1352;48.446;9.156;2022-11-20T12:52:02;94767.28;;;8.03;100.00
2685;BME280;1352;48.446;9.156;2022-11-20T12:55:03;94779.44;;;8.02;100.00
2685;BME280;1352;48.446;9.156;2022-11-20T12:57:50;94777.25;;;7.88;97.65
2685;BME280;1352;48.446;9.156;2022-11-20T13:00:38;94775.41;;;7.69;97.54
2685;BME280;1352;48.446;9.156;2022-11-20T13:03:36;94772.53;;;7.63;100.00
2685;BME280;1352;48.446;9.156;2022-11-20T13:06:18;94768.00;;;7.65;98.74
2685;BME280;1352;48.446;9.156;2022-11-20T13:08:58;94763.28;;;7.79;99.58
2685;BME280;1352;48.446;9.156;2022-11-20T13:11:42;94765.34;;;7.85;96.65
2685;BME280;1352;48.446;9.156;2022-11-20T13:14:24;94770.84;;;7.92;97.89
2685;BME280;1352;48.446;9.156;2022-11-20T13:17:22;94767.16;;;8.04;94.07
2685;BME280;1352;48.446;9.156;2022-11-20T13:20:18;94768.81;;;8.15;94.61
2685;BME280;1352;48.446;9.156;2022-11-20T13:23:00;94767.28;;;8.03;90.50
2685;BME280;1352;48.446;9.156;2022-11-20T13:25:34;94767.28;;;8.03;90.97
2685;BME280;1352;48.446;9.156;2022-11-20T13:28:28;94767.00;;;7.96;90.89
2685;BME280;1352;48.446;9.156;2022-11-20T13:31:30;94765.47;;;7.84;89.75
2685;BME280;1352;48.446;9.156;2022-11-20T13:34:26;94763.78;;;7.64;92.50
2685;BME280;1352;48.446;9.156;2022-11-20T13:37:00;94761.00;;;7.56;94.94
2685;BME280;1352;48.446;9.156;2022-11-20T13:39:34;94767.97;;;7.55;95.24
2685;BME280;1352;48.446;9.156;2022-11-20T13:42:31;94761.84;;;7.56;95.81
2685;BME280;1352;48.446;9.156;2022-11-20T13:45:23;94756.59;;;7.46;93.57
2685;BME280;1352;48.446;9.156;2022-11-20T13:48:00;94750.88;;;7.43;93.76
2685;BME280;1352;48.446;9.156;2022-11-20T13:51:11;94752.13;;;7.48;92.43
2685;BME280;1352;48.446;9.156;2022-11-20T13:54:22;94749.31;;;7.61;92.86
2685;BME280;1352;48.446;9.156;2022-11-20T13:57:36;94735.28;;;7.83;92.47
2685;BME280;1352;48.446;9.156;2022-11-20T14:00:32;94737.34;;;7.89;89.99
2685;BME280;1352;48.446;9.156;2022-11-20T14:09:12;94722.81;;;7.77;87.67
2685;BME280;1352;48.446;9.156;2022-11-20T14:11:54;94726.53;;;7.84;89.41
2685;BME280;1352;48.446;9.156;2022-11-20T14:14:47;94718.22;;;7.90;88.43
2685;BME280;1352;48.446;9.156;2022-11-20T14:17:30;94717.53;;;7.88;87.27
2685;BME280;1352;48.446;9.156;2022-11-20T14:20:00;94720.94;;;7.89;88.15
2685;BME280;1352;48.446;9.156;2022-11-20T14:22:30;94711.66;;;7.96;89.99
2685;BME280;1352;48.446;9.156;2022-11-20T14:25:06;94718.75;;;7.94;89.15
2685;BME280;1352;48.446;9.156;2022-11-20T14:27:40;94717.09;;;7.93;88.25
2685;BME280;1352;48.446;9.156;2022-11-20T14:30:15;94714.94;;;7.98;88.29
2685;BME280;1352;48.446;9.156;2022-11-20T14:32:44;94713.41;;;7.85;89.03
2685;BME280;1352;48.446;9.156;2022-11-20T14:35:20;94725.16;;;7.80;87.87
2685;BME280;1352;48.446;9.156;2022-11-20T14:37:50;94711.22;;;7.71;87.68
2685;BME280;1352;48.446;9.156;2022-11-20T14:40:31;94712.56;;;7.75;86.95
2685;BME280;1352;48.446;9.156;2022-11-20T14:43:02;94712.53;;;7.66;86.78
2685;BME280;1352;48.446;9.156;2022-11-20T14:45:34;94706.50;;;7.56;87.24
2685;BME280;1352;48.446;9.156;2022-11-20T14:48:01;94702.72;;;7.60;87.82
2685;BME280;1352;48.446;9.156;2022-11-20T14:50:31;94708.84;;;7.59;88.52
2685;BME280;1352;48.446;9.156;2022-11-20T14:53:00;94704.31;;;7.51;89.37
2685;BME280;1352;48.446;9.156;2022-11-20T14:55:30;94698.06;;;7.54;89.16
2685;BME280;1352;48.446;9.156;2022-11-20T14:58:00;94685.34;;;7.51;88.74
2685;BME280;1352;48.446;9.156;2022-11-20T15:00:34;94687.91;;;7.41;89.51
2685;BME280;1352;48.446;9.156;2022-11-20T15:03:02;94685.56;;;7.38;89.50
2685;BME280;1352;48.446;9.156;2022-11-20T15:05:45;94687.63;;;7.34;91.02
2685;BME280;1352;48.446;9.156;2022-11-20T15:08:14;94688.28;;;7.36;90.85
2685;BME280;1352;48.446;9.156;2022-11-20T15:10:46;94686.13;;;7.41;91.18
2685;BME280;1352;48.446;9.156;2022-11-20T15:13:16;94680.34;;;7.28;92.00
2685;BME280;1352;48.446;9.156;2022-11-20T15:15:48;94680.66;;;7.35;92.52
2685;BME280;1352;48.446;9.156;2022-11-20T15:18:18;94669.97;;;7.28;91.37
2685;BME280;1352;48.446;9.156;2022-11-20T15:20:47;94670.78;;;7.29;91.83
2685;BME280;1352;48.446;9.156;2022-11-20T15:23:16;94668.72;;;7.23;90.90
2685;BME280;1352;48.446;9.156;2022-11-20T15:25:46;94659.88;;;7.25;91.17
2685;BME280;1352;48.446;9.156;2022-11-20T15:28:17;94659.03;;;7.15;89.96
2685;BME280;1352;48.446;9.156;2022-11-20T15:30:47;94649.47;;;7.16;89.79
2685;BME280;1352;48.446;9.156;2022-11-20T15:33:15;94650.66;;;7.12;89.71
2685;BME280;1352;48.446;9.156;2022-11-20T15:38:38;94644.59;;;6.92;90.20
2685;BME280;1352;48.446;9.156;2022-11-20T15:41:25;94651.00;;;6.88;88.58
2685;BME280;1352;48.446;9.156;2022-11-20T15:43:55;94651.78;;;6.79;88.41
2685;BME280;1352;48.446;9.156;2022-11-20T15:46:28;94642.34;;;6.78;88.45
2685;BME280;1352;48.446;9.156;2022-11-20T15:49:09;94640.66;;;6.67;87.93
2685;BME280;1352;48.446;9.156;2022-11-20T15:51:48;94639.66;;;6.58;88.07
2685;BME280;1352;48.446;9.156;2022-11-20T15:54:24;94643.19;;;6.57;88.79